sensor_id;sensor_type;location;lat;lon;timestamp;P1;durP1;ratioP1;P2;durP2;ratioP2
76171;SDS011;64929;51.178;4.138;2023-08-06T00:00:24;3.88;;;1.23;;
76171;SDS011;64929;51.178;4.138;2023-08-06T00:02:50;2.58;;;1.20;;
76171;SDS011;64929;51.178;4.138;2023-08-06T00:05:16;1.33;;;1.20;;
76171;SDS011;64929;51.178;4.138;2023-08-06T00:07:48;3.00;;;1.50;;
76171;SDS011;64929;51.178;4.138;2023-08-06T00:10:14;2.33;;;1.60;;
76171;SDS011;64929;51.178;4.138;2023-08-06T00:12:40;1.95;;;1.60;;
76171;SDS011;64929;51.178;4.138;2023-08-06T00:15:06;1.75;;;1.45;;
76171;SDS011;64929;51.178;4.138;2023-08-06T00:17:32;2.10;;;1.75;;
76171;SDS011;64929;51.178;4.138;2023-08-06T00:19:59;4.28;;;2.45;;
76171;SDS011;64929;51.178;4.138;2023-08-06T00:22:29;3.55;;;1.80;;
76171;SDS011;64929;51.178;4.138;2023-08-06T00:24:56;3.60;;;2.00;;
76171;SDS011;64929;51.178;4.138;2023-08-06T00:27:22;2.67;;;2.00;;
76171;SDS011;64929;51.178;4.138;2023-08-06T00:29:48;2.25;;;2.05;;
76171;SDS011;64929;51.178;4.138;2023-08-06T00:32:14;2.88;;;1.83;;
76171;SDS011;64929;51.178;4.138;2023-08-06T00:34:40;4.97;;;2.20;;
76171;SDS011;64929;51.178;4.138;2023-08-06T00:37:06;3.25;;;2.03;;
76171;SDS011;64929;51.178;4.138;2023-08-06T00:39:31;4.65;;;2.65;;
76171;SDS011;64929;51.178;4.138;2023-08-06T00:41:57;2.72;;;2.20;;
76171;SDS011;64929;51.178;4.138;2023-08-06T00:44:23;2.90;;;2.58;;
76171;SDS011;64929;51.178;4.138;2023-08-06T00:46:49;3.17;;;2.38;;
76171;SDS011;64929;51.178;4.138;2023-08-06T00:49:15;3.40;;;3.05;;
76171;SDS011;64929;51.178;4.138;2023-08-06T00:51:41;2.47;;;2.25;;
76171;SDS011;64929;51.178;4.138;2023-08-06T00:54:08;2.33;;;2.05;;
76171;SDS011;64929;51.178;4.138;2023-08-06T00:56:34;2.65;;;2.00;;
76171;SDS011;64929;51.178;4.138;2023-08-06T00:59:03;3.80;;;2.15;;
76171;SDS011;64929;51.178;4.138;2023-08-06T01:01:30;3.28;;;1.88;;
76171;SDS011;64929;51.178;4.138;2023-08-06T01:03:56;2.15;;;1.75;;
76171;SDS011;64929;51.178;4.138;2023-08-06T01:06:25;2.83;;;1.90;;
76171;SDS011;64929;51.178;4.138;2023-08-06T01:09:31;2.95;;;1.77;;
76171;SDS011;64929;51.178;4.138;2023-08-06T01:12:14;2.95;;;1.92;;
76171;SDS011;64929;51.178;4.138;2023-08-06T01:15:11;2.58;;;1.85;;
76171;SDS011;64929;51.178;4.138;2023-08-06T01:17:47;3.40;;;2.50;;
76171;SDS011;64929;51.178;4.138;2023-08-06T01:20:13;3.25;;;2.00;;
76171;SDS011;64929;51.178;4.138;2023-08-06T01:22:39;3.55;;;2.10;;
76171;SDS011;64929;51.178;4.138;2023-08-06T01:25:04;4.40;;;2.33;;
76171;SDS011;64929;51.178;4.138;2023-08-06T01:32:35;3.75;;;1.80;;
76171;SDS011;64929;51.178;4.138;2023-08-06T01:35:04;2.75;;;1.98;;
76171;SDS011;64929;51.178;4.138;2023-08-06T01:37:31;2.50;;;1.80;;
76171;SDS011;64929;51.178;4.138;2023-08-06T01:39:57;3.78;;;2.35;;
76171;SDS011;64929;51.178;4.138;2023-08-06T01:42:23;2.40;;;2.20;;
76171;SDS011;64929;51.178;4.138;2023-08-06T01:44:48;2.95;;;1.90;;
76171;SDS011;64929;51.178;4.138;2023-08-06T01:47:14;2.45;;;2.25;;
76171;SDS011;64929;51.178;4.138;2023-08-06T01:49:40;2.83;;;2.30;;
76171;SDS011;64929;51.178;4.138;2023-08-06T01:52:06;3.50;;;2.70;;
76171;SDS011;64929;51.178;4.138;2023-08-06T01:54:32;2.47;;;2.28;;
76171;SDS011;64929;51.178;4.138;2023-08-06T01:56:58;3.30;;;2.33;;
76171;SDS011;64929;51.178;4.138;2023-08-06T01:59:23;7.05;;;3.13;;
76171;SDS011;64929;51.178;4.138;2023-08-06T02:01:49;2.78;;;2.20;;
76171;SDS011;64929;51.178;4.138;2023-08-06T02:04:15;7.60;;;3.05;;
76171;SDS011;64929;51.178;4.138;2023-08-06T02:06:41;4.22;;;2.55;;
76171;SDS011;64929;51.178;4.138;2023-08-06T02:09:06;3.20;;;2.50;;
76171;SDS011;64929;51.178;4.138;2023-08-06T02:11:32;4.63;;;3.13;;
76171;SDS011;64929;51.178;4.138;2023-08-06T02:13:58;5.20;;;2.70;;
76171;SDS011;64929;51.178;4.138;2023-08-06T02:16:23;3.28;;;2.83;;
76171;SDS011;64929;51.178;4.138;2023-08-06T02:18:49;3.60;;;2.70;;
76171;SDS011;64929;51.178;4.138;2023-08-06T02:21:14;3.58;;;2.90;;
76171;SDS011;64929;51.178;4.138;2023-08-06T02:23:40;3.25;;;2.85;;
76171;SDS011;64929;51.178;4.138;2023-08-06T02:26:06;4.85;;;2.60;;
76171;SDS011;64929;51.178;4.138;2023-08-06T02:28:31;3.22;;;2.70;;
76171;SDS011;64929;51.178;4.138;2023-08-06T02:30:57;5.15;;;2.30;;
76171;SDS011;64929;51.178;4.138;2023-08-06T02:33:23;4.15;;;2.92;;
76171;SDS011;64929;51.178;4.138;2023-08-06T02:35:49;3.97;;;2.38;;
76171;SDS011;64929;51.178;4.138;2023-08-06T02:38:15;5.63;;;2.80;;
76171;SDS011;64929;51.178;4.138;2023-08-06T02:40:44;4.80;;;3.15;;
76171;SDS011;64929;51.178;4.138;2023-08-06T02:43:13;3.22;;;2.40;;
76171;SDS011;64929;51.178;4.138;2023-08-06T02:45:39;5.25;;;2.80;;
76171;SDS011;64929;51.178;4.138;2023-08-06T02:48:05;3.88;;;2.70;;
76171;SDS011;64929;51.178;4.138;2023-08-06T02:50:31;3.08;;;2.60;;
76171;SDS011;64929;51.178;4.138;2023-08-06T02:53:02;4.65;;;2.70;;
76171;SDS011;64929;51.178;4.138;2023-08-06T02:55:28;3.35;;;2.70;;
76171;SDS011;64929;51.178;4.138;2023-08-06T02:57:53;3.65;;;2.50;;
76171;SDS011;64929;51.178;4.138;2023-08-06T03:00:19;3.25;;;2.58;;
76171;SDS011;64929;51.178;4.138;2023-08-06T03:02:44;3.28;;;2.20;;
76171;SDS011;64929;51.178;4.138;2023-08-06T03:05:10;4.03;;;2.40;;
76171;SDS011;64929;51.178;4.138;2023-08-06T03:07:36;3.22;;;2.00;;
76171;SDS011;64929;51.178;4.138;2023-08-06T03:10:02;4.57;;;2.05;;
76171;SDS011;64929;51.178;4.138;2023-08-06T03:12:28;2.90;;;2.30;;
76171;SDS011;64929;51.178;4.138;2023-08-06T03:14:54;4.32;;;2.20;;
76171;SDS011;64929;51.178;4.138;2023-08-06T03:17:20;2.67;;;2.20;;
76171;SDS011;64929;51.178;4.138;2023-08-06T03:19:46;2.47;;;2.10;;
76171;SDS011;64929;51.178;4.138;2023-08-06T03:22:11;1.48;;;1.38;;
76171;SDS011;64929;51.178;4.138;2023-08-06T03:24:37;1.58;;;1.25;;
76171;SDS011;64929;51.178;4.138;2023-08-06T03:27:02;1.25;;;1.05;;
76171;SDS011;64929;51.178;4.138;2023-08-06T03:29:29;1.83;;;1.05;;
76171;SDS011;64929;51.178;4.138;2023-08-06T03:31:54;1.60;;;0.90;;
76171;SDS011;64929;51.178;4.138;2023-08-06T03:34:20;1.35;;;0.82;;
76171;SDS011;64929;51.178;4.138;2023-08-06T03:36:46;6.20;;;1.15;;
76171;SDS011;64929;51.178;4.138;2023-08-06T03:39:11;1.65;;;0.90;;
76171;SDS011;64929;51.178;4.138;2023-08-06T03:41:38;1.50;;;0.90;;
76171;SDS011;64929;51.178;4.138;2023-08-06T03:44:04;1.13;;;1.00;;
76171;SDS011;64929;51.178;4.138;2023-08-06T03:46:30;1.45;;;0.93;;
76171;SDS011;64929;51.178;4.138;2023-08-06T03:49:02;1.50;;;1.30;;
76171;SDS011;64929;51.178;4.138;2023-08-06T03:51:28;3.10;;;1.60;;
76171;SDS011;64929;51.178;4.138;2023-08-06T03:53:53;2.17;;;1.40;;
76171;SDS011;64929;51.178;4.138;2023-08-06T03:56:19;4.75;;;1.63;;
76171;SDS011;64929;51.178;4.138;2023-08-06T03:58:45;3.47;;;1.50;;
76171;SDS011;64929;51.178;4.138;2023-08-06T04:01:10;3.70;;;1.75;;
76171;SDS011;64929;51.178;4.138;2023-08-06T04:03:36;3.45;;;1.50;;
76171;SDS011;64929;51.178;4.138;2023-08-06T04:06:04;6.72;;;1.48;;
76171;SDS011;64929;51.178;4.138;2023-08-06T04:08:31;3.70;;;1.53;;
76171;SDS011;64929;51.178;4.138;2023-08-06T04:10:57;10.57;;;2.00;;
76171;SDS011;64929;51.178;4.138;2023-08-06T04:13:22;4.63;;;1.77;;
76171;SDS011;64929;51.178;4.138;2023-08-06T04:15:48;4.97;;;2.38;;
76171;SDS011;64929;51.178;4.138;2023-08-06T04:18:14;7.55;;;2.47;;
76171;SDS011;64929;51.178;4.138;2023-08-06T04:20:43;5.47;;;2.30;;
76171;SDS011;64929;51.178;4.138;2023-08-06T04:23:14;4.78;;;2.63;;
76171;SDS011;64929;51.178;4.138;2023-08-06T04:25:40;5.13;;;2.40;;
76171;SDS011;64929;51.178;4.138;2023-08-06T04:28:06;7.13;;;2.20;;
76171;SDS011;64929;51.178;4.138;2023-08-06T04:30:32;5.40;;;2.35;;
76171;SDS011;64929;51.178;4.138;2023-08-06T04:32:58;5.35;;;2.20;;
76171;SDS011;64929;51.178;4.138;2023-08-06T04:35:23;5.57;;;2.10;;
76171;SDS011;64929;51.178;4.138;2023-08-06T04:37:50;5.72;;;2.25;;
76171;SDS011;64929;51.178;4.138;2023-08-06T04:40:16;6.38;;;2.50;;
76171;SDS011;64929;51.178;4.138;2023-08-06T04:42:41;5.30;;;1.98;;
76171;SDS011;64929;51.178;4.138;2023-08-06T04:45:07;5.57;;;2.30;;
76171;SDS011;64929;51.178;4.138;2023-08-06T04:47:33;9.55;;;2.45;;
76171;SDS011;64929;51.178;4.138;2023-08-06T04:49:59;9.60;;;2.60;;
76171;SDS011;64929;51.178;4.138;2023-08-06T04:52:24;8.82;;;2.30;;
76171;SDS011;64929;51.178;4.138;2023-08-06T04:54:53;7.10;;;2.40;;
76171;SDS011;64929;51.178;4.138;2023-08-06T04:57:19;5.22;;;2.33;;
76171;SDS011;64929;51.178;4.138;2023-08-06T04:59:45;10.90;;;2.35;;
76171;SDS011;64929;51.178;4.138;2023-08-06T05:02:11;7.97;;;2.25;;
76171;SDS011;64929;51.178;4.138;2023-08-06T05:04:36;5.45;;;2.08;;
76171;SDS011;64929;51.178;4.138;2023-08-06T05:07:02;7.00;;;2.40;;
76171;SDS011;64929;51.178;4.138;2023-08-06T05:09:28;3.55;;;2.20;;
76171;SDS011;64929;51.178;4.138;2023-08-06T05:11:54;6.78;;;2.13;;
76171;SDS011;64929;51.178;4.138;2023-08-06T05:14:19;8.25;;;1.92;;
76171;SDS011;64929;51.178;4.138;2023-08-06T05:16:45;5.55;;;1.60;;
76171;SDS011;64929;51.178;4.138;2023-08-06T05:19:11;5.07;;;1.70;;
76171;SDS011;64929;51.178;4.138;2023-08-06T05:21:36;7.93;;;1.58;;
76171;SDS011;64929;51.178;4.138;2023-08-06T05:24:02;4.15;;;1.40;;
76171;SDS011;64929;51.178;4.138;2023-08-06T05:26:28;9.70;;;2.20;;
76171;SDS011;64929;51.178;4.138;2023-08-06T05:28:54;6.53;;;1.85;;
76171;SDS011;64929;51.178;4.138;2023-08-06T05:31:19;7.75;;;1.90;;
76171;SDS011;64929;51.178;4.138;2023-08-06T05:33:45;2.78;;;1.98;;
76171;SDS011;64929;51.178;4.138;2023-08-06T05:36:11;4.32;;;2.38;;
76171;SDS011;64929;51.178;4.138;2023-08-06T05:38:36;7.35;;;1.73;;
76171;SDS011;64929;51.178;4.138;2023-08-06T05:41:02;2.45;;;1.50;;
76171;SDS011;64929;51.178;4.138;2023-08-06T05:43:28;5.47;;;2.05;;
76171;SDS011;64929;51.178;4.138;2023-08-06T05:45:55;5.50;;;2.13;;
76171;SDS011;64929;51.178;4.138;2023-08-06T05:48:21;5.47;;;1.60;;
76171;SDS011;64929;51.178;4.138;2023-08-06T05:50:49;6.22;;;1.73;;
76171;SDS011;64929;51.178;4.138;2023-08-06T05:53:15;5.13;;;1.80;;
76171;SDS011;64929;51.178;4.138;2023-08-06T05:55:41;8.48;;;1.80;;
76171;SDS011;64929;51.178;4.138;2023-08-06T05:58:07;2.75;;;1.65;;
76171;SDS011;64929;51.178;4.138;2023-08-06T06:00:32;5.10;;;1.80;;
76171;SDS011;64929;51.178;4.138;2023-08-06T06:02:58;5.88;;;1.75;;
76171;SDS011;64929;51.178;4.138;2023-08-06T06:05:24;5.22;;;1.70;;
76171;SDS011;64929;51.178;4.138;2023-08-06T06:07:49;6.40;;;1.83;;
76171;SDS011;64929;51.178;4.138;2023-08-06T06:10:15;6.15;;;1.58;;
76171;SDS011;64929;51.178;4.138;2023-08-06T06:12:41;5.97;;;1.58;;
76171;SDS011;64929;51.178;4.138;2023-08-06T06:15:06;6.53;;;2.10;;
76171;SDS011;64929;51.178;4.138;2023-08-06T06:17:32;4.35;;;1.88;;
76171;SDS011;64929;51.178;4.138;2023-08-06T06:19:58;5.40;;;1.90;;
76171;SDS011;64929;51.178;4.138;2023-08-06T06:22:24;4.80;;;2.38;;
76171;SDS011;64929;51.178;4.138;2023-08-06T06:24:49;4.10;;;1.80;;
76171;SDS011;64929;51.178;4.138;2023-08-06T06:27:15;6.10;;;1.88;;
76171;SDS011;64929;51.178;4.138;2023-08-06T06:29:41;5.05;;;1.50;;
76171;SDS011;64929;51.178;4.138;2023-08-06T06:32:06;5.45;;;1.40;;
76171;SDS011;64929;51.178;4.138;2023-08-06T06:34:34;2.45;;;1.13;;
76171;SDS011;64929;51.178;4.138;2023-08-06T06:37:01;3.03;;;0.70;;
76171;SDS011;64929;51.178;4.138;2023-08-06T06:39:26;3.60;;;0.80;;
76171;SDS011;64929;51.178;4.138;2023-08-06T06:41:52;5.57;;;0.90;;
76171;SDS011;64929;51.178;4.138;2023-08-06T06:44:18;4.78;;;0.80;;
76171;SDS011;64929;51.178;4.138;2023-08-06T06:46:45;3.88;;;0.50;;
76171;SDS011;64929;51.178;4.138;2023-08-06T06:49:11;2.70;;;0.57;;
76171;SDS011;64929;51.178;4.138;2023-08-06T06:51:36;1.92;;;1.15;;
76171;SDS011;64929;51.178;4.138;2023-08-06T06:54:02;5.20;;;0.70;;
76171;SDS011;64929;51.178;4.138;2023-08-06T06:56:28;2.95;;;0.68;;
76171;SDS011;64929;51.178;4.138;2023-08-06T06:58:53;3.20;;;0.80;;
76171;SDS011;64929;51.178;4.138;2023-08-06T07:01:19;7.53;;;0.90;;
76171;SDS011;64929;51.178;4.138;2023-08-06T07:03:45;5.75;;;1.30;;
76171;SDS011;64929;51.178;4.138;2023-08-06T07:06:10;4.43;;;0.63;;
76171;SDS011;64929;51.178;4.138;2023-08-06T07:08:37;4.53;;;0.80;;
76171;SDS011;64929;51.178;4.138;2023-08-06T07:11:03;6.03;;;1.15;;
76171;SDS011;64929;51.178;4.138;2023-08-06T07:13:31;8.10;;;1.33;;
76171;SDS011;64929;51.178;4.138;2023-08-06T07:15:58;7.05;;;0.90;;
76171;SDS011;64929;51.178;4.138;2023-08-06T07:18:24;6.72;;;1.25;;
76171;SDS011;64929;51.178;4.138;2023-08-06T07:20:50;5.82;;;1.00;;
76171;SDS011;64929;51.178;4.138;2023-08-06T07:23:16;5.30;;;1.10;;
76171;SDS011;64929;51.178;4.138;2023-08-06T07:25:43;4.15;;;0.80;;
76171;SDS011;64929;51.178;4.138;2023-08-06T07:28:09;6.53;;;1.45;;
76171;SDS011;64929;51.178;4.138;2023-08-06T07:30:38;6.15;;;1.15;;
76171;SDS011;64929;51.178;4.138;2023-08-06T07:33:04;5.03;;;1.45;;
76171;SDS011;64929;51.178;4.138;2023-08-06T07:35:30;8.60;;;1.30;;
76171;SDS011;64929;51.178;4.138;2023-08-06T07:37:56;9.07;;;0.90;;
76171;SDS011;64929;51.178;4.138;2023-08-06T07:40:21;4.80;;;0.82;;
76171;SDS011;64929;51.178;4.138;2023-08-06T07:42:47;11.27;;;1.10;;
76171;SDS011;64929;51.178;4.138;2023-08-06T07:45:13;3.00;;;0.82;;
76171;SDS011;64929;51.178;4.138;2023-08-06T07:47:39;3.42;;;0.77;;
76171;SDS011;64929;51.178;4.138;2023-08-06T07:50:09;3.22;;;0.80;;
76171;SDS011;64929;51.178;4.138;2023-08-06T07:52:35;3.13;;;0.75;;
76171;SDS011;64929;51.178;4.138;2023-08-06T07:55:01;7.00;;;0.90;;
76171;SDS011;64929;51.178;4.138;2023-08-06T07:57:30;3.88;;;1.00;;
76171;SDS011;64929;51.178;4.138;2023-08-06T07:59:56;6.75;;;0.80;;
76171;SDS011;64929;51.178;4.138;2023-08-06T08:02:22;4.85;;;0.90;;
76171;SDS011;64929;51.178;4.138;2023-08-06T08:04:47;6.28;;;0.98;;
76171;SDS011;64929;51.178;4.138;2023-08-06T08:07:14;5.68;;;0.95;;
76171;SDS011;64929;51.178;4.138;2023-08-06T08:09:40;7.07;;;0.82;;
76171;SDS011;64929;51.178;4.138;2023-08-06T08:12:05;8.23;;;0.90;;
76171;SDS011;64929;51.178;4.138;2023-08-06T08:14:31;7.38;;;1.05;;
76171;SDS011;64929;51.178;4.138;2023-08-06T08:17:02;6.22;;;1.27;;
76171;SDS011;64929;51.178;4.138;2023-08-06T08:19:28;6.05;;;1.00;;
76171;SDS011;64929;51.178;4.138;2023-08-06T08:21:54;3.83;;;1.10;;
76171;SDS011;64929;51.178;4.138;2023-08-06T08:24:20;10.13;;;1.30;;
76171;SDS011;64929;51.178;4.138;2023-08-06T08:26:49;9.57;;;1.45;;
76171;SDS011;64929;51.178;4.138;2023-08-06T08:29:15;9.70;;;1.40;;
76171;SDS011;64929;51.178;4.138;2023-08-06T08:31:40;5.82;;;1.30;;
76171;SDS011;64929;51.178;4.138;2023-08-06T08:34:06;9.02;;;1.05;;
76171;SDS011;64929;51.178;4.138;2023-08-06T08:36:32;5.55;;;0.98;;
76171;SDS011;64929;51.178;4.138;2023-08-06T08:38:58;7.05;;;1.58;;
76171;SDS011;64929;51.178;4.138;2023-08-06T08:41:23;4.40;;;1.15;;
76171;SDS011;64929;51.178;4.138;2023-08-06T08:43:49;5.90;;;1.38;;
76171;SDS011;64929;51.178;4.138;2023-08-06T08:46:19;7.50;;;1.38;;
76171;SDS011;64929;51.178;4.138;2023-08-06T08:49:54;5.65;;;1.02;;
76171;SDS011;64929;51.178;4.138;2023-08-06T08:52:21;3.15;;;0.68;;
76171;SDS011;64929;51.178;4.138;2023-08-06T08:54:47;6.07;;;0.90;;
76171;SDS011;64929;51.178;4.138;2023-08-06T08:59:43;9.60;;;1.40;;
76171;SDS011;64929;51.178;4.138;2023-08-06T09:02:11;11.75;;;1.23;;
76171;SDS011;64929;51.178;4.138;2023-08-06T09:04:39;6.18;;;1.13;;
76171;SDS011;64929;51.178;4.138;2023-08-06T09:07:05;6.25;;;1.17;;
76171;SDS011;64929;51.178;4.138;2023-08-06T09:09:34;5.60;;;0.70;;
76171;SDS011;64929;51.178;4.138;2023-08-06T09:12:10;10.00;;;1.83;;
76171;SDS011;64929;51.178;4.138;2023-08-06T09:14:39;7.25;;;1.02;;
76171;SDS011;64929;51.178;4.138;2023-08-06T09:17:05;7.97;;;1.35;;
76171;SDS011;64929;51.178;4.138;2023-08-06T09:19:31;10.68;;;1.52;;
76171;SDS011;64929;51.178;4.138;2023-08-06T09:21:57;8.52;;;0.98;;
76171;SDS011;64929;51.178;4.138;2023-08-06T09:24:23;5.25;;;1.45;;
76171;SDS011;64929;51.178;4.138;2023-08-06T09:26:49;8.30;;;1.42;;
76171;SDS011;64929;51.178;4.138;2023-08-06T09:29:15;9.90;;;1.40;;
76171;SDS011;64929;51.178;4.138;2023-08-06T09:31:44;11.85;;;1.40;;
76171;SDS011;64929;51.178;4.138;2023-08-06T09:34:12;6.93;;;1.17;;
76171;SDS011;64929;51.178;4.138;2023-08-06T09:36:50;8.27;;;1.73;;
76171;SDS011;64929;51.178;4.138;2023-08-06T09:39:18;9.95;;;1.60;;
76171;SDS011;64929;51.178;4.138;2023-08-06T09:41:46;7.40;;;1.40;;
76171;SDS011;64929;51.178;4.138;2023-08-06T09:44:17;8.35;;;1.48;;
76171;SDS011;64929;51.178;4.138;2023-08-06T09:46:48;8.65;;;1.10;;
76171;SDS011;64929;51.178;4.138;2023-08-06T09:49:15;6.03;;;1.17;;
76171;SDS011;64929;51.178;4.138;2023-08-06T09:51:43;8.73;;;1.08;;
76171;SDS011;64929;51.178;4.138;2023-08-06T09:54:11;11.43;;;1.02;;
76171;SDS011;64929;51.178;4.138;2023-08-06T09:56:39;5.25;;;0.90;;
76171;SDS011;64929;51.178;4.138;2023-08-06T09:59:05;6.82;;;1.40;;
76171;SDS011;64929;51.178;4.138;2023-08-06T10:01:34;4.30;;;1.05;;
76171;SDS011;64929;51.178;4.138;2023-08-06T10:04:04;3.65;;;0.85;;
76171;SDS011;64929;51.178;4.138;2023-08-06T10:06:35;4.80;;;0.93;;
76171;SDS011;64929;51.178;4.138;2023-08-06T10:09:04;4.25;;;0.70;;
76171;SDS011;64929;51.178;4.138;2023-08-06T10:11:30;5.45;;;0.70;;
76171;SDS011;64929;51.178;4.138;2023-08-06T10:13:58;2.30;;;0.60;;
76171;SDS011;64929;51.178;4.138;2023-08-06T10:16:37;6.80;;;1.10;;
76171;SDS011;64929;51.178;4.138;2023-08-06T10:19:05;10.18;;;1.35;;
76171;SDS011;64929;51.178;4.138;2023-08-06T10:21:34;8.25;;;1.00;;
76171;SDS011;64929;51.178;4.138;2023-08-06T10:24:00;5.68;;;0.95;;
76171;SDS011;64929;51.178;4.138;2023-08-06T10:26:27;7.90;;;1.10;;
76171;SDS011;64929;51.178;4.138;2023-08-06T10:28:54;5.70;;;0.80;;
76171;SDS011;64929;51.178;4.138;2023-08-06T10:31:20;7.55;;;0.90;;
76171;SDS011;64929;51.178;4.138;2023-08-06T10:34:18;5.70;;;1.27;;
76171;SDS011;64929;51.178;4.138;2023-08-06T10:36:44;1.52;;;0.63;;
76171;SDS011;64929;51.178;4.138;2023-08-06T10:39:13;5.75;;;1.08;;
76171;SDS011;64929;51.178;4.138;2023-08-06T10:41:40;4.50;;;0.75;;
76171;SDS011;64929;51.178;4.138;2023-08-06T10:44:09;3.38;;;0.75;;
76171;SDS011;64929;51.178;4.138;2023-08-06T10:46:36;5.72;;;0.90;;
76171;SDS011;64929;51.178;4.138;2023-08-06T10:49:03;6.22;;;0.90;;
76171;SDS011;64929;51.178;4.138;2023-08-06T10:51:29;6.00;;;0.90;;
76171;SDS011;64929;51.178;4.138;2023-08-06T10:53:55;5.35;;;1.40;;
76171;SDS011;64929;51.178;4.138;2023-08-06T10:56:23;2.35;;;0.65;;
76171;SDS011;64929;51.178;4.138;2023-08-06T10:58:55;9.32;;;1.65;;
76171;SDS011;64929;51.178;4.138;2023-08-06T11:01:24;4.37;;;0.93;;
76171;SDS011;64929;51.178;4.138;2023-08-06T11:03:55;10.88;;;1.45;;
76171;SDS011;64929;51.178;4.138;2023-08-06T11:06:22;3.35;;;1.10;;
76171;SDS011;64929;51.178;4.138;2023-08-06T11:08:49;5.25;;;1.00;;
76171;SDS011;64929;51.178;4.138;2023-08-06T11:11:16;5.43;;;1.10;;
76171;SDS011;64929;51.178;4.138;2023-08-06T11:13:43;1.58;;;0.60;;
76171;SDS011;64929;51.178;4.138;2023-08-06T11:16:14;5.93;;;0.57;;
76171;SDS011;64929;51.178;4.138;2023-08-06T11:18:44;4.43;;;0.63;;
76171;SDS011;64929;51.178;4.138;2023-08-06T11:21:10;3.72;;;0.57;;
76171;SDS011;64929;51.178;4.138;2023-08-06T11:23:39;4.38;;;0.70;;
76171;SDS011;64929;51.178;4.138;2023-08-06T11:26:07;3.20;;;0.75;;
76171;SDS011;64929;51.178;4.138;2023-08-06T11:28:33;7.05;;;1.08;;
76171;SDS011;64929;51.178;4.138;2023-08-06T11:30:59;4.90;;;0.90;;
76171;SDS011;64929;51.178;4.138;2023-08-06T11:33:27;8.10;;;1.33;;
76171;SDS011;64929;51.178;4.138;2023-08-06T11:35:57;3.45;;;0.82;;
76171;SDS011;64929;51.178;4.138;2023-08-06T11:38:27;9.70;;;1.55;;
76171;SDS011;64929;51.178;4.138;2023-08-06T11:40:54;10.52;;;1.20;;
76171;SDS011;64929;51.178;4.138;2023-08-06T11:43:20;6.10;;;1.55;;
76171;SDS011;64929;51.178;4.138;2023-08-06T11:45:47;6.85;;;1.40;;
76171;SDS011;64929;51.178;4.138;2023-08-06T11:48:18;9.75;;;1.42;;
76171;SDS011;64929;51.178;4.138;2023-08-06T11:50:44;5.93;;;1.00;;
76171;SDS011;64929;51.178;4.138;2023-08-06T11:53:11;5.68;;;1.02;;
76171;SDS011;64929;51.178;4.138;2023-08-06T11:55:39;7.68;;;1.10;;
76171;SDS011;64929;51.178;4.138;2023-08-06T11:58:05;11.70;;;1.35;;
76171;SDS011;64929;51.178;4.138;2023-08-06T12:00:31;7.90;;;1.55;;
76171;SDS011;64929;51.178;4.138;2023-08-06T12:02:57;10.52;;;1.30;;
76171;SDS011;64929;51.178;4.138;2023-08-06T12:05:24;8.93;;;1.48;;
76171;SDS011;64929;51.178;4.138;2023-08-06T12:07:58;10.43;;;1.70;;
76171;SDS011;64929;51.178;4.138;2023-08-06T12:10:25;5.78;;;1.02;;
76171;SDS011;64929;51.178;4.138;2023-08-06T12:12:52;5.40;;;1.17;;
76171;SDS011;64929;51.178;4.138;2023-08-06T12:15:18;4.72;;;1.30;;
76171;SDS011;64929;51.178;4.138;2023-08-06T12:17:45;6.07;;;1.23;;
76171;SDS011;64929;51.178;4.138;2023-08-06T12:20:10;9.32;;;1.40;;
76171;SDS011;64929;51.178;4.138;2023-08-06T12:22:37;5.13;;;1.17;;
76171;SDS011;64929;51.178;4.138;2023-08-06T12:25:05;8.35;;;1.40;;
76171;SDS011;64929;51.178;4.138;2023-08-06T12:27:40;11.68;;;1.85;;
76171;SDS011;64929;51.178;4.138;2023-08-06T12:30:07;5.78;;;1.13;;
76171;SDS011;64929;51.178;4.138;2023-08-06T12:32:33;8.93;;;1.50;;
76171;SDS011;64929;51.178;4.138;2023-08-06T12:35:00;6.78;;;1.25;;
76171;SDS011;64929;51.178;4.138;2023-08-06T12:37:26;6.88;;;1.33;;
76171;SDS011;64929;51.178;4.138;2023-08-06T12:39:51;6.63;;;1.27;;
76171;SDS011;64929;51.178;4.138;2023-08-06T12:42:17;5.63;;;1.27;;
76171;SDS011;64929;51.178;4.138;2023-08-06T12:44:43;7.93;;;1.40;;
76171;SDS011;64929;51.178;4.138;2023-08-06T12:47:08;11.18;;;1.67;;
76171;SDS011;64929;51.178;4.138;2023-08-06T12:49:34;9.32;;;1.95;;
76171;SDS011;64929;51.178;4.138;2023-08-06T12:52:00;10.07;;;1.85;;
76171;SDS011;64929;51.178;4.138;2023-08-06T12:54:27;10.10;;;2.03;;
76171;SDS011;64929;51.178;4.138;2023-08-06T12:56:53;5.90;;;1.60;;
76171;SDS011;64929;51.178;4.138;2023-08-06T12:59:19;4.75;;;1.20;;
76171;SDS011;64929;51.178;4.138;2023-08-06T13:01:45;11.50;;;1.63;;
76171;SDS011;64929;51.178;4.138;2023-08-06T13:04:11;7.90;;;1.30;;
76171;SDS011;64929;51.178;4.138;2023-08-06T13:06:37;8.73;;;1.40;;
76171;SDS011;64929;51.178;4.138;2023-08-06T13:09:07;6.80;;;2.25;;
76171;SDS011;64929;51.178;4.138;2023-08-06T13:11:36;6.80;;;1.42;;
76171;SDS011;64929;51.178;4.138;2023-08-06T13:14:08;9.00;;;1.23;;
76171;SDS011;64929;51.178;4.138;2023-08-06T13:16:36;5.80;;;1.23;;
76171;SDS011;64929;51.178;4.138;2023-08-06T13:19:03;4.68;;;1.77;;
76171;SDS011;64929;51.178;4.138;2023-08-06T13:21:34;7.55;;;1.50;;
76171;SDS011;64929;51.178;4.138;2023-08-06T13:24:05;11.07;;;1.50;;
76171;SDS011;64929;51.178;4.138;2023-08-06T13:26:31;7.07;;;1.08;;
76171;SDS011;64929;51.178;4.138;2023-08-06T13:28:57;6.38;;;1.40;;
76171;SDS011;64929;51.178;4.138;2023-08-06T13:31:23;9.50;;;1.40;;
76171;SDS011;64929;51.178;4.138;2023-08-06T13:33:49;4.68;;;1.17;;
76171;SDS011;64929;51.178;4.138;2023-08-06T13:36:16;10.23;;;1.58;;
76171;SDS011;64929;51.178;4.138;2023-08-06T13:38:42;11.10;;;2.13;;
76171;SDS011;64929;51.178;4.138;2023-08-06T13:41:07;9.50;;;1.90;;
76171;SDS011;64929;51.178;4.138;2023-08-06T13:43:33;11.95;;;1.83;;
76171;SDS011;64929;51.178;4.138;2023-08-06T13:45:59;10.05;;;1.63;;
76171;SDS011;64929;51.178;4.138;2023-08-06T13:48:24;6.18;;;1.42;;
76171;SDS011;64929;51.178;4.138;2023-08-06T13:50:50;14.65;;;1.80;;
76171;SDS011;64929;51.178;4.138;2023-08-06T13:53:16;13.13;;;1.55;;
76171;SDS011;64929;51.178;4.138;2023-08-06T13:55:42;11.02;;;1.50;;
76171;SDS011;64929;51.178;4.138;2023-08-06T13:58:07;7.57;;;1.83;;
76171;SDS011;64929;51.178;4.138;2023-08-06T14:00:33;11.57;;;2.45;;
76171;SDS011;64929;51.178;4.138;2023-08-06T14:03:00;11.30;;;2.22;;
76171;SDS011;64929;51.178;4.138;2023-08-06T14:05:26;5.28;;;1.23;;
76171;SDS011;64929;51.178;4.138;2023-08-06T14:07:52;4.43;;;1.10;;
76171;SDS011;64929;51.178;4.138;2023-08-06T14:10:17;5.22;;;1.00;;
76171;SDS011;64929;51.178;4.138;2023-08-06T14:12:43;7.05;;;1.27;;
76171;SDS011;64929;51.178;4.138;2023-08-06T14:15:10;9.45;;;1.40;;
76171;SDS011;64929;51.178;4.138;2023-08-06T14:17:36;6.18;;;1.60;;
76171;SDS011;64929;51.178;4.138;2023-08-06T14:20:01;6.32;;;1.38;;
76171;SDS011;64929;51.178;4.138;2023-08-06T14:22:29;4.57;;;1.45;;
76171;SDS011;64929;51.178;4.138;2023-08-06T14:24:56;8.65;;;1.60;;
76171;SDS011;64929;51.178;4.138;2023-08-06T14:27:23;4.80;;;1.40;;
76171;SDS011;64929;51.178;4.138;2023-08-06T14:29:48;4.40;;;1.00;;
76171;SDS011;64929;51.178;4.138;2023-08-06T14:32:14;5.22;;;0.93;;
76171;SDS011;64929;51.178;4.138;2023-08-06T14:34:43;3.97;;;1.10;;
76171;SDS011;64929;51.178;4.138;2023-08-06T14:37:09;5.35;;;1.17;;
76171;SDS011;64929;51.178;4.138;2023-08-06T14:39:35;7.07;;;1.17;;
76171;SDS011;64929;51.178;4.138;2023-08-06T14:42:01;7.85;;;1.15;;
76171;SDS011;64929;51.178;4.138;2023-08-06T14:44:27;2.65;;;1.15;;
76171;SDS011;64929;51.178;4.138;2023-08-06T14:46:53;9.15;;;1.30;;
76171;SDS011;64929;51.178;4.138;2023-08-06T14:49:18;8.18;;;1.83;;
76171;SDS011;64929;51.178;4.138;2023-08-06T14:51:44;4.93;;;1.50;;